sensor_id;sensor_type;location;lat;lon;timestamp;P1;durP1;ratioP1;P2;durP2;ratioP2
6259;SDS011;3163;51.516;4.000;2023-07-13T00:01:50;3.45;;;0.98;;
6259;SDS011;3163;51.516;4.000;2023-07-13T00:04:20;1.10;;;0.63;;
6259;SDS011;3163;51.516;4.000;2023-07-13T00:06:48;1.73;;;0.90;;
6259;SDS011;3163;51.516;4.000;2023-07-13T00:09:16;2.80;;;1.33;;
6259;SDS011;3163;51.516;4.000;2023-07-13T00:11:42;1.85;;;0.73;;
6259;SDS011;3163;51.516;4.000;2023-07-13T00:14:09;1.65;;;0.88;;
6259;SDS011;3163;51.516;4.000;2023-07-13T00:16:36;0.90;;;0.75;;
6259;SDS011;3163;51.516;4.000;2023-07-13T00:19:03;2.47;;;1.00;;
6259;SDS011;3163;51.516;4.000;2023-07-13T00:21:30;2.72;;;0.88;;
6259;SDS011;3163;51.516;4.000;2023-07-13T00:23:56;1.42;;;0.80;;
6259;SDS011;3163;51.516;4.000;2023-07-13T00:26:22;3.13;;;0.80;;
6259;SDS011;3163;51.516;4.000;2023-07-13T00:28:48;2.50;;;0.80;;
6259;SDS011;3163;51.516;4.000;2023-07-13T00:31:14;1.42;;;0.75;;
6259;SDS011;3163;51.516;4.000;2023-07-13T00:33:40;3.97;;;0.90;;
6259;SDS011;3163;51.516;4.000;2023-07-13T00:36:07;1.52;;;0.80;;
6259;SDS011;3163;51.516;4.000;2023-07-13T00:38:34;1.60;;;0.77;;
6259;SDS011;3163;51.516;4.000;2023-07-13T00:41:01;1.95;;;0.80;;
6259;SDS011;3163;51.516;4.000;2023-07-13T00:43:28;0.75;;;0.73;;
6259;SDS011;3163;51.516;4.000;2023-07-13T00:48:25;2.50;;;0.85;;
6259;SDS011;3163;51.516;4.000;2023-07-13T00:50:55;3.20;;;0.68;;
6259;SDS011;3163;51.516;4.000;2023-07-13T00:53:23;4.93;;;0.90;;
6259;SDS011;3163;51.516;4.000;2023-07-13T00:55:51;5.00;;;1.10;;
6259;SDS011;3163;51.516;4.000;2023-07-13T00:58:18;1.90;;;0.93;;
6259;SDS011;3163;51.516;4.000;2023-07-13T01:00:44;2.55;;;0.75;;
6259;SDS011;3163;51.516;4.000;2023-07-13T01:03:11;1.40;;;0.90;;
6259;SDS011;3163;51.516;4.000;2023-07-13T01:05:37;4.43;;;1.05;;
6259;SDS011;3163;51.516;4.000;2023-07-13T01:08:04;3.95;;;1.00;;
6259;SDS011;3163;51.516;4.000;2023-07-13T01:10:31;6.22;;;1.27;;
6259;SDS011;3163;51.516;4.000;2023-07-13T01:13:04;7.05;;;1.30;;
6259;SDS011;3163;51.516;4.000;2023-07-13T01:15:38;2.13;;;0.75;;
6259;SDS011;3163;51.516;4.000;2023-07-13T01:18:12;2.72;;;1.13;;
6259;SDS011;3163;51.516;4.000;2023-07-13T01:20:59;0.77;;;0.65;;
6259;SDS011;3163;51.516;4.000;2023-07-13T01:23:27;3.03;;;1.20;;
6259;SDS011;3163;51.516;4.000;2023-07-13T01:25:54;2.38;;;1.05;;
6259;SDS011;3163;51.516;4.000;2023-07-13T01:28:20;0.90;;;0.70;;
6259;SDS011;3163;51.516;4.000;2023-07-13T01:30:47;2.03;;;1.00;;
6259;SDS011;3163;51.516;4.000;2023-07-13T01:33:13;3.42;;;1.15;;
6259;SDS011;3163;51.516;4.000;2023-07-13T01:35:41;3.67;;;1.10;;
6259;SDS011;3163;51.516;4.000;2023-07-13T01:38:08;1.92;;;0.75;;
6259;SDS011;3163;51.516;4.000;2023-07-13T01:40:35;3.47;;;0.75;;
6259;SDS011;3163;51.516;4.000;2023-07-13T01:43:02;2.25;;;0.77;;
6259;SDS011;3163;51.516;4.000;2023-07-13T01:45:28;3.08;;;1.13;;
6259;SDS011;3163;51.516;4.000;2023-07-13T01:47:54;3.13;;;0.85;;
6259;SDS011;3163;51.516;4.000;2023-07-13T01:50:21;4.17;;;1.07;;
6259;SDS011;3163;51.516;4.000;2023-07-13T01:52:46;1.83;;;0.80;;
6259;SDS011;3163;51.516;4.000;2023-07-13T01:55:12;4.28;;;1.00;;
6259;SDS011;3163;51.516;4.000;2023-07-13T01:57:38;2.20;;;0.90;;
6259;SDS011;3163;51.516;4.000;2023-07-13T02:00:05;2.38;;;0.90;;
6259;SDS011;3163;51.516;4.000;2023-07-13T02:02:32;3.08;;;1.10;;
6259;SDS011;3163;51.516;4.000;2023-07-13T02:04:58;3.40;;;1.10;;
6259;SDS011;3163;51.516;4.000;2023-07-13T02:07:23;2.92;;;1.10;;
6259;SDS011;3163;51.516;4.000;2023-07-13T02:09:49;4.03;;;1.17;;
6259;SDS011;3163;51.516;4.000;2023-07-13T02:12:15;2.60;;;1.08;;
6259;SDS011;3163;51.516;4.000;2023-07-13T02:14:40;4.32;;;1.05;;
6259;SDS011;3163;51.516;4.000;2023-07-13T02:17:06;3.97;;;0.90;;
6259;SDS011;3163;51.516;4.000;2023-07-13T02:19:34;3.45;;;1.02;;
6259;SDS011;3163;51.516;4.000;2023-07-13T02:22:01;4.68;;;0.98;;
6259;SDS011;3163;51.516;4.000;2023-07-13T02:24:27;2.75;;;0.95;;
6259;SDS011;3163;51.516;4.000;2023-07-13T02:26:53;3.10;;;1.17;;
6259;SDS011;3163;51.516;4.000;2023-07-13T02:29:19;3.97;;;1.13;;
6259;SDS011;3163;51.516;4.000;2023-07-13T02:31:44;1.80;;;1.05;;
6259;SDS011;3163;51.516;4.000;2023-07-13T02:34:10;3.40;;;1.57;;
6259;SDS011;3163;51.516;4.000;2023-07-13T02:36:36;3.22;;;1.20;;
6259;SDS011;3163;51.516;4.000;2023-07-13T02:39:02;4.85;;;1.13;;
6259;SDS011;3163;51.516;4.000;2023-07-13T02:41:30;4.82;;;1.25;;
6259;SDS011;3163;51.516;4.000;2023-07-13T02:43:57;4.50;;;1.23;;
6259;SDS011;3163;51.516;4.000;2023-07-13T02:46:28;1.58;;;0.68;;
6259;SDS011;3163;51.516;4.000;2023-07-13T02:48:57;4.50;;;1.23;;
6259;SDS011;3163;51.516;4.000;2023-07-13T02:51:23;2.77;;;0.90;;
6259;SDS011;3163;51.516;4.000;2023-07-13T02:53:48;2.00;;;1.35;;
6259;SDS011;3163;51.516;4.000;2023-07-13T02:56:14;2.55;;;0.95;;
6259;SDS011;3163;51.516;4.000;2023-07-13T02:58:39;1.95;;;1.33;;
6259;SDS011;3163;51.516;4.000;2023-07-13T03:01:06;3.33;;;1.10;;
6259;SDS011;3163;51.516;4.000;2023-07-13T03:03:33;2.20;;;1.15;;
6259;SDS011;3163;51.516;4.000;2023-07-13T03:06:00;2.08;;;1.10;;
6259;SDS011;3163;51.516;4.000;2023-07-13T03:08:28;1.35;;;0.80;;
6259;SDS011;3163;51.516;4.000;2023-07-13T03:11:04;3.83;;;1.00;;
6259;SDS011;3163;51.516;4.000;2023-07-13T03:13:32;1.98;;;0.90;;
6259;SDS011;3163;51.516;4.000;2023-07-13T03:15:58;3.67;;;1.13;;
6259;SDS011;3163;51.516;4.000;2023-07-13T03:18:26;2.97;;;1.20;;
6259;SDS011;3163;51.516;4.000;2023-07-13T03:20:52;2.78;;;1.35;;
6259;SDS011;3163;51.516;4.000;2023-07-13T03:23:19;3.60;;;1.33;;
6259;SDS011;3163;51.516;4.000;2023-07-13T03:25:45;2.85;;;1.23;;
6259;SDS011;3163;51.516;4.000;2023-07-13T03:28:11;3.03;;;1.10;;
6259;SDS011;3163;51.516;4.000;2023-07-13T03:30:38;4.00;;;1.17;;
6259;SDS011;3163;51.516;4.000;2023-07-13T03:33:04;2.83;;;1.33;;
6259;SDS011;3163;51.516;4.000;2023-07-13T03:35:30;2.60;;;1.03;;
6259;SDS011;3163;51.516;4.000;2023-07-13T03:37:57;4.68;;;1.45;;
6259;SDS011;3163;51.516;4.000;2023-07-13T03:40:24;6.17;;;1.23;;
6259;SDS011;3163;51.516;4.000;2023-07-13T03:42:51;3.42;;;1.25;;
6259;SDS011;3163;51.516;4.000;2023-07-13T03:45:17;2.75;;;1.00;;
6259;SDS011;3163;51.516;4.000;2023-07-13T03:47:43;4.43;;;0.98;;
6259;SDS011;3163;51.516;4.000;2023-07-13T03:50:09;4.40;;;1.50;;
6259;SDS011;3163;51.516;4.000;2023-07-13T03:52:35;3.30;;;1.30;;
6259;SDS011;3163;51.516;4.000;2023-07-13T03:55:01;2.65;;;1.27;;
6259;SDS011;3163;51.516;4.000;2023-07-13T03:57:27;2.47;;;1.00;;
6259;SDS011;3163;51.516;4.000;2023-07-13T03:59:52;3.58;;;1.23;;
6259;SDS011;3163;51.516;4.000;2023-07-13T04:02:18;4.00;;;1.33;;
6259;SDS011;3163;51.516;4.000;2023-07-13T04:04:44;1.88;;;0.82;;
6259;SDS011;3163;51.516;4.000;2023-07-13T04:07:09;3.60;;;1.35;;
6259;SDS011;3163;51.516;4.000;2023-07-13T04:09:35;1.23;;;0.75;;
6259;SDS011;3163;51.516;4.000;2023-07-13T04:12:01;3.00;;;0.85;;
6259;SDS011;3163;51.516;4.000;2023-07-13T04:14:28;2.80;;;1.45;;
6259;SDS011;3163;51.516;4.000;2023-07-13T04:16:53;3.17;;;1.40;;
6259;SDS011;3163;51.516;4.000;2023-07-13T04:19:22;4.05;;;1.20;;
6259;SDS011;3163;51.516;4.000;2023-07-13T04:21:48;3.28;;;1.33;;
6259;SDS011;3163;51.516;4.000;2023-07-13T04:24:13;2.97;;;1.27;;
6259;SDS011;3163;51.516;4.000;2023-07-13T04:26:39;3.17;;;1.17;;
6259;SDS011;3163;51.516;4.000;2023-07-13T04:29:05;1.95;;;0.90;;
6259;SDS011;3163;51.516;4.000;2023-07-13T04:31:32;2.92;;;1.10;;
6259;SDS011;3163;51.516;4.000;2023-07-13T04:33:58;2.97;;;1.00;;
6259;SDS011;3163;51.516;4.000;2023-07-13T04:36:24;4.57;;;1.20;;
6259;SDS011;3163;51.516;4.000;2023-07-13T04:38:53;4.50;;;1.27;;
6259;SDS011;3163;51.516;4.000;2023-07-13T04:41:19;3.92;;;1.40;;
6259;SDS011;3163;51.516;4.000;2023-07-13T04:43:46;1.48;;;1.10;;
6259;SDS011;3163;51.516;4.000;2023-07-13T04:46:13;3.70;;;1.42;;
6259;SDS011;3163;51.516;4.000;2023-07-13T04:48:42;2.38;;;1.15;;
6259;SDS011;3163;51.516;4.000;2023-07-13T04:51:08;3.45;;;1.30;;
6259;SDS011;3163;51.516;4.000;2023-07-13T04:53:34;6.65;;;2.30;;
6259;SDS011;3163;51.516;4.000;2023-07-13T04:56:00;3.22;;;1.23;;
6259;SDS011;3163;51.516;4.000;2023-07-13T04:58:26;3.42;;;1.25;;
6259;SDS011;3163;51.516;4.000;2023-07-13T05:00:52;2.47;;;1.20;;
6259;SDS011;3163;51.516;4.000;2023-07-13T05:03:18;3.90;;;1.50;;
6259;SDS011;3163;51.516;4.000;2023-07-13T05:05:54;2.22;;;1.20;;
6259;SDS011;3163;51.516;4.000;2023-07-13T05:08:24;3.22;;;1.30;;
6259;SDS011;3163;51.516;4.000;2023-07-13T05:10:50;2.00;;;0.88;;
6259;SDS011;3163;51.516;4.000;2023-07-13T05:13:16;1.33;;;1.10;;
6259;SDS011;3163;51.516;4.000;2023-07-13T05:15:42;6.57;;;1.33;;
6259;SDS011;3163;51.516;4.000;2023-07-13T05:18:08;2.25;;;1.08;;
6259;SDS011;3163;51.516;4.000;2023-07-13T05:20:33;5.85;;;1.33;;
6259;SDS011;3163;51.516;4.000;2023-07-13T05:22:59;3.03;;;1.33;;
6259;SDS011;3163;51.516;4.000;2023-07-13T05:25:25;2.78;;;1.00;;
6259;SDS011;3163;51.516;4.000;2023-07-13T05:27:50;1.23;;;1.02;;
6259;SDS011;3163;51.516;4.000;2023-07-13T05:30:16;3.63;;;1.50;;
6259;SDS011;3163;51.516;4.000;2023-07-13T05:32:42;2.33;;;1.38;;
6259;SDS011;3163;51.516;4.000;2023-07-13T05:35:08;4.10;;;1.27;;
6259;SDS011;3163;51.516;4.000;2023-07-13T05:37:33;4.18;;;1.38;;
6259;SDS011;3163;51.516;4.000;2023-07-13T05:39:59;3.80;;;1.25;;
6259;SDS011;3163;51.516;4.000;2023-07-13T05:42:25;9.40;;;1.98;;
6259;SDS011;3163;51.516;4.000;2023-07-13T05:44:51;6.30;;;1.42;;
6259;SDS011;3163;51.516;4.000;2023-07-13T05:47:16;5.45;;;1.60;;
6259;SDS011;3163;51.516;4.000;2023-07-13T05:49:42;2.58;;;1.40;;
6259;SDS011;3163;51.516;4.000;2023-07-13T05:52:08;5.35;;;1.15;;
6259;SDS011;3163;51.516;4.000;2023-07-13T05:54:33;2.58;;;1.15;;
6259;SDS011;3163;51.516;4.000;2023-07-13T05:56:59;4.53;;;1.23;;
6259;SDS011;3163;51.516;4.000;2023-07-13T05:59:25;2.67;;;1.20;;
6259;SDS011;3163;51.516;4.000;2023-07-13T06:01:51;2.25;;;1.05;;
6259;SDS011;3163;51.516;4.000;2023-07-13T06:04:17;4.53;;;1.58;;
6259;SDS011;3163;51.516;4.000;2023-07-13T06:06:44;2.53;;;1.00;;
6259;SDS011;3163;51.516;4.000;2023-07-13T06:09:09;5.82;;;1.38;;
6259;SDS011;3163;51.516;4.000;2023-07-13T06:11:35;1.45;;;1.25;;
6259;SDS011;3163;51.516;4.000;2023-07-13T06:14:01;3.17;;;1.35;;
6259;SDS011;3163;51.516;4.000;2023-07-13T06:16:27;4.13;;;1.50;;
6259;SDS011;3163;51.516;4.000;2023-07-13T06:18:53;2.05;;;1.08;;
6259;SDS011;3163;51.516;4.000;2023-07-13T06:21:19;2.33;;;1.15;;
6259;SDS011;3163;51.516;4.000;2023-07-13T06:23:47;3.75;;;1.23;;
6259;SDS011;3163;51.516;4.000;2023-07-13T06:26:13;2.13;;;0.90;;
6259;SDS011;3163;51.516;4.000;2023-07-13T06:28:39;4.18;;;1.38;;
6259;SDS011;3163;51.516;4.000;2023-07-13T06:31:06;5.78;;;1.48;;
6259;SDS011;3163;51.516;4.000;2023-07-13T06:33:33;2.95;;;1.42;;
6259;SDS011;3163;51.516;4.000;2023-07-13T06:35:59;2.42;;;1.33;;
6259;SDS011;3163;51.516;4.000;2023-07-13T06:38:25;4.65;;;1.63;;
6259;SDS011;3163;51.516;4.000;2023-07-13T06:40:50;5.38;;;1.27;;
6259;SDS011;3163;51.516;4.000;2023-07-13T06:43:16;3.22;;;1.60;;
6259;SDS011;3163;51.516;4.000;2023-07-13T06:45:44;4.95;;;1.38;;
6259;SDS011;3163;51.516;4.000;2023-07-13T06:48:12;3.03;;;1.55;;
6259;SDS011;3163;51.516;4.000;2023-07-13T06:50:39;5.75;;;1.48;;
6259;SDS011;3163;51.516;4.000;2023-07-13T06:53:04;2.97;;;1.13;;
6259;SDS011;3163;51.516;4.000;2023-07-13T06:55:30;4.00;;;1.60;;
6259;SDS011;3163;51.516;4.000;2023-07-13T06:57:56;4.65;;;1.30;;
6259;SDS011;3163;51.516;4.000;2023-07-13T07:00:22;3.47;;;1.33;;
6259;SDS011;3163;51.516;4.000;2023-07-13T07:02:48;4.55;;;1.42;;
6259;SDS011;3163;51.516;4.000;2023-07-13T07:05:13;4.00;;;1.38;;
6259;SDS011;3163;51.516;4.000;2023-07-13T07:07:39;2.28;;;1.10;;
6259;SDS011;3163;51.516;4.000;2023-07-13T07:10:05;1.60;;;1.10;;
6259;SDS011;3163;51.516;4.000;2023-07-13T07:12:31;2.85;;;1.48;;
6259;SDS011;3163;51.516;4.000;2023-07-13T07:14:57;4.55;;;1.55;;
6259;SDS011;3163;51.516;4.000;2023-07-13T07:17:22;1.65;;;1.27;;
6259;SDS011;3163;51.516;4.000;2023-07-13T07:19:48;2.63;;;1.67;;
6259;SDS011;3163;51.516;4.000;2023-07-13T07:22:14;3.47;;;1.30;;
6259;SDS011;3163;51.516;4.000;2023-07-13T07:24:39;2.42;;;1.20;;
6259;SDS011;3163;51.516;4.000;2023-07-13T07:27:05;2.22;;;1.35;;
6259;SDS011;3163;51.516;4.000;2023-07-13T07:29:31;3.87;;;1.80;;
6259;SDS011;3163;51.516;4.000;2023-07-13T07:31:58;6.68;;;1.67;;
6259;SDS011;3163;51.516;4.000;2023-07-13T07:34:24;2.70;;;1.08;;
6259;SDS011;3163;51.516;4.000;2023-07-13T07:36:50;3.10;;;1.40;;
6259;SDS011;3163;51.516;4.000;2023-07-13T07:39:16;4.60;;;1.67;;
6259;SDS011;3163;51.516;4.000;2023-07-13T07:41:42;1.10;;;0.95;;
6259;SDS011;3163;51.516;4.000;2023-07-13T07:44:07;5.28;;;1.40;;
6259;SDS011;3163;51.516;4.000;2023-07-13T07:46:34;1.83;;;0.90;;
6259;SDS011;3163;51.516;4.000;2023-07-13T07:49:00;3.80;;;1.75;;
6259;SDS011;3163;51.516;4.000;2023-07-13T07:51:26;3.95;;;1.02;;
6259;SDS011;3163;51.516;4.000;2023-07-13T07:53:53;1.45;;;1.25;;
6259;SDS011;3163;51.516;4.000;2023-07-13T07:56:19;2.83;;;1.08;;
6259;SDS011;3163;51.516;4.000;2023-07-13T07:58:45;3.60;;;1.60;;
6259;SDS011;3163;51.516;4.000;2023-07-13T08:01:10;4.72;;;1.52;;
6259;SDS011;3163;51.516;4.000;2023-07-13T08:03:36;2.13;;;1.10;;
6259;SDS011;3163;51.516;4.000;2023-07-13T08:06:02;3.72;;;1.33;;
6259;SDS011;3163;51.516;4.000;2023-07-13T08:08:28;5.50;;;1.15;;
6259;SDS011;3163;51.516;4.000;2023-07-13T08:10:53;3.10;;;1.50;;
6259;SDS011;3163;51.516;4.000;2023-07-13T08:13:19;3.10;;;1.17;;
6259;SDS011;3163;51.516;4.000;2023-07-13T08:15:46;3.28;;;1.30;;
6259;SDS011;3163;51.516;4.000;2023-07-13T08:18:12;2.03;;;1.15;;
6259;SDS011;3163;51.516;4.000;2023-07-13T08:20:38;1.73;;;1.20;;
6259;SDS011;3163;51.516;4.000;2023-07-13T08:23:04;1.48;;;1.25;;
6259;SDS011;3163;51.516;4.000;2023-07-13T08:25:30;1.90;;;1.02;;
6259;SDS011;3163;51.516;4.000;2023-07-13T08:27:56;3.92;;;1.25;;
6259;SDS011;3163;51.516;4.000;2023-07-13T08:30:21;1.83;;;1.10;;
6259;SDS011;3163;51.516;4.000;2023-07-13T08:32:48;2.13;;;0.77;;
6259;SDS011;3163;51.516;4.000;2023-07-13T08:35:14;1.88;;;1.02;;
6259;SDS011;3163;51.516;4.000;2023-07-13T08:37:41;2.28;;;1.23;;
6259;SDS011;3163;51.516;4.000;2023-07-13T08:40:08;3.15;;;1.10;;
6259;SDS011;3163;51.516;4.000;2023-07-13T08:45:17;3.75;;;1.23;;
6259;SDS011;3163;51.516;4.000;2023-07-13T08:47:57;1.73;;;1.10;;
6259;SDS011;3163;51.516;4.000;2023-07-13T08:50:33;1.90;;;0.98;;
6259;SDS011;3163;51.516;4.000;2023-07-13T08:53:04;1.67;;;1.23;;
6259;SDS011;3163;51.516;4.000;2023-07-13T08:55:31;1.88;;;1.10;;
6259;SDS011;3163;51.516;4.000;2023-07-13T08:58:10;6.05;;;1.33;;
6259;SDS011;3163;51.516;4.000;2023-07-13T09:03:49;4.03;;;1.30;;
6259;SDS011;3163;51.516;4.000;2023-07-13T09:06:26;2.58;;;1.10;;
6259;SDS011;3163;51.516;4.000;2023-07-13T09:09:04;1.88;;;1.10;;
6259;SDS011;3163;51.516;4.000;2023-07-13T09:16:37;1.70;;;1.25;;
6259;SDS011;3163;51.516;4.000;2023-07-13T09:19:04;2.03;;;1.00;;
6259;SDS011;3163;51.516;4.000;2023-07-13T09:21:39;2.22;;;1.00;;
6259;SDS011;3163;51.516;4.000;2023-07-13T09:27:01;2.00;;;1.00;;
6259;SDS011;3163;51.516;4.000;2023-07-13T09:29:36;2.33;;;1.08;;
6259;SDS011;3163;51.516;4.000;2023-07-13T09:32:09;2.28;;;1.25;;
6259;SDS011;3163;51.516;4.000;2023-07-13T09:34:39;1.20;;;1.05;;
6259;SDS011;3163;51.516;4.000;2023-07-13T09:37:05;4.47;;;0.98;;
6259;SDS011;3163;51.516;4.000;2023-07-13T09:39:35;1.30;;;1.00;;
6259;SDS011;3163;51.516;4.000;2023-07-13T09:42:27;0.88;;;0.77;;
6259;SDS011;3163;51.516;4.000;2023-07-13T09:44:54;2.30;;;1.20;;
6259;SDS011;3163;51.516;4.000;2023-07-13T09:47:25;1.52;;;1.13;;
6259;SDS011;3163;51.516;4.000;2023-07-13T09:50:01;1.83;;;1.00;;
6259;SDS011;3163;51.516;4.000;2023-07-13T09:52:38;3.70;;;1.17;;
6259;SDS011;3163;51.516;4.000;2023-07-13T09:55:22;2.60;;;1.17;;
6259;SDS011;3163;51.516;4.000;2023-07-13T10:00:39;1.77;;;0.82;;
6259;SDS011;3163;51.516;4.000;2023-07-13T10:05:48;1.13;;;0.90;;
6259;SDS011;3163;51.516;4.000;2023-07-13T10:08:28;2.55;;;1.25;;
6259;SDS011;3163;51.516;4.000;2023-07-13T10:11:08;0.60;;;0.60;;
6259;SDS011;3163;51.516;4.000;2023-07-13T10:13:36;2.00;;;1.08;;
6259;SDS011;3163;51.516;4.000;2023-07-13T10:16:06;1.92;;;1.23;;
6259;SDS011;3163;51.516;4.000;2023-07-13T10:21:12;1.67;;;0.80;;
6259;SDS011;3163;51.516;4.000;2023-07-13T10:23:40;1.50;;;0.90;;
6259;SDS011;3163;51.516;4.000;2023-07-13T10:26:09;1.05;;;0.90;;
6259;SDS011;3163;51.516;4.000;2023-07-13T10:28:40;2.25;;;0.80;;
6259;SDS011;3163;51.516;4.000;2023-07-13T10:31:11;1.38;;;0.70;;
6259;SDS011;3163;51.516;4.000;2023-07-13T10:33:39;1.13;;;0.90;;
6259;SDS011;3163;51.516;4.000;2023-07-13T10:38:39;0.52;;;0.50;;
6259;SDS011;3163;51.516;4.000;2023-07-13T10:41:08;1.95;;;0.85;;
6259;SDS011;3163;51.516;4.000;2023-07-13T10:43:41;2.42;;;0.90;;
6259;SDS011;3163;51.516;4.000;2023-07-13T10:46:14;1.65;;;0.70;;
6259;SDS011;3163;51.516;4.000;2023-07-13T10:48:43;0.98;;;0.77;;
6259;SDS011;3163;51.516;4.000;2023-07-13T10:51:13;1.20;;;0.90;;
6259;SDS011;3163;51.516;4.000;2023-07-13T10:53:46;0.93;;;0.90;;
6259;SDS011;3163;51.516;4.000;2023-07-13T10:56:24;3.50;;;1.20;;
6259;SDS011;3163;51.516;4.000;2023-07-13T10:59:09;1.00;;;0.95;;
6259;SDS011;3163;51.516;4.000;2023-07-13T11:01:46;1.75;;;0.80;;
6259;SDS011;3163;51.516;4.000;2023-07-13T11:04:23;3.47;;;1.03;;
6259;SDS011;3163;51.516;4.000;2023-07-13T11:06:52;1.85;;;0.90;;
6259;SDS011;3163;51.516;4.000;2023-07-13T11:09:32;1.52;;;0.80;;
6259;SDS011;3163;51.516;4.000;2023-07-13T11:12:02;0.55;;;0.55;;
6259;SDS011;3163;51.516;4.000;2023-07-13T11:14:35;0.85;;;0.85;;
6259;SDS011;3163;51.516;4.000;2023-07-13T11:20:42;3.35;;;1.00;;
6259;SDS011;3163;51.516;4.000;2023-07-13T11:22:53;1.15;;;1.05;;
6259;SDS011;3163;51.516;4.000;2023-07-13T11:25:34;4.38;;;0.90;;
6259;SDS011;3163;51.516;4.000;2023-07-13T11:30:38;5.93;;;1.20;;
6259;SDS011;3163;51.516;4.000;2023-07-13T11:38:39;4.10;;;1.02;;
6259;SDS011;3163;51.516;4.000;2023-07-13T11:41:30;2.30;;;0.90;;
6259;SDS011;3163;51.516;4.000;2023-07-13T11:44:07;1.42;;;0.85;;
6259;SDS011;3163;51.516;4.000;2023-07-13T11:46:36;1.60;;;0.90;;
6259;SDS011;3163;51.516;4.000;2023-07-13T11:49:04;1.67;;;0.88;;
6259;SDS011;3163;51.516;4.000;2023-07-13T11:51:31;1.67;;;1.40;;
6259;SDS011;3163;51.516;4.000;2023-07-13T11:54:05;1.08;;;0.73;;
6259;SDS011;3163;51.516;4.000;2023-07-13T11:56:39;2.67;;;0.98;;
6259;SDS011;3163;51.516;4.000;2023-07-13T11:59:07;2.05;;;0.75;;
6259;SDS011;3163;51.516;4.000;2023-07-13T12:01:36;2.10;;;0.82;;
6259;SDS011;3163;51.516;4.000;2023-07-13T12:04:19;2.00;;;0.70;;
6259;SDS011;3163;51.516;4.000;2023-07-13T12:06:55;2.70;;;1.00;;
6259;SDS011;3163;51.516;4.000;2023-07-13T12:09:42;0.85;;;0.80;;
6259;SDS011;3163;51.516;4.000;2023-07-13T12:12:12;1.10;;;1.00;;
6259;SDS011;3163;51.516;4.000;2023-07-13T12:14:40;1.25;;;0.88;;
6259;SDS011;3163;51.516;4.000;2023-07-13T12:17:20;2.00;;;0.90;;
6259;SDS011;3163;51.516;4.000;2023-07-13T12:19:48;1.95;;;1.05;;
6259;SDS011;3163;51.516;4.000;2023-07-13T12:22:16;2.95;;;0.75;;
6259;SDS011;3163;51.516;4.000;2023-07-13T12:24:43;0.70;;;0.70;;
6259;SDS011;3163;51.516;4.000;2023-07-13T12:27:14;1.13;;;0.73;;
6259;SDS011;3163;51.516;4.000;2023-07-13T12:29:51;0.90;;;0.55;;
6259;SDS011;3163;51.516;4.000;2023-07-13T12:32:23;1.80;;;0.50;;
6259;SDS011;3163;51.516;4.000;2023-07-13T12:35:23;2.03;;;0.77;;
6259;SDS011;3163;51.516;4.000;2023-07-13T12:37:44;1.30;;;0.70;;
6259;SDS011;3163;51.516;4.000;2023-07-13T12:40:15;0.85;;;0.60;;
6259;SDS011;3163;51.516;4.000;2023-07-13T12:42:45;0.85;;;0.75;;
6259;SDS011;3163;51.516;4.000;2023-07-13T12:47:49;0.57;;;0.57;;
6259;SDS011;3163;51.516;4.000;2023-07-13T12:50:40;0.60;;;0.60;;
6259;SDS011;3163;51.516;4.000;2023-07-13T12:53:16;0.95;;;0.70;;
6259;SDS011;3163;51.516;4.000;2023-07-13T12:55:47;0.77;;;0.77;;
6259;SDS011;3163;51.516;4.000;2023-07-13T12:58:21;0.60;;;0.55;;
6259;SDS011;3163;51.516;4.000;2023-07-13T13:00:57;0.90;;;0.70;;
6259;SDS011;3163;51.516;4.000;2023-07-13T13:03:31;0.70;;;0.70;;
6259;SDS011;3163;51.516;4.000;2023-07-13T13:06:05;2.25;;;0.52;;
6259;SDS011;3163;51.516;4.000;2023-07-13T13:08:32;1.80;;;1.20;;
6259;SDS011;3163;51.516;4.000;2023-07-13T13:11:00;0.75;;;0.75;;
6259;SDS011;3163;51.516;4.000;2023-07-13T13:13:26;0.60;;;0.60;;
6259;SDS011;3163;51.516;4.000;2023-07-13T13:15:52;0.77;;;0.60;;
6259;SDS011;3163;51.516;4.000;2023-07-13T13:18:19;2.05;;;0.60;;
6259;SDS011;3163;51.516;4.000;2023-07-13T13:20:46;1.30;;;0.63;;
6259;SDS011;3163;51.516;4.000;2023-07-13T13:23:14;0.50;;;0.50;;
6259;SDS011;3163;51.516;4.000;2023-07-13T13:25:43;0.80;;;0.80;;
6259;SDS011;3163;51.516;4.000;2023-07-13T13:28:18;1.30;;;0.70;;
6259;SDS011;3163;51.516;4.000;2023-07-13T13:30:45;1.42;;;0.63;;
6259;SDS011;3163;51.516;4.000;2023-07-13T13:33:14;1.75;;;0.65;;
6259;SDS011;3163;51.516;4.000;2023-07-13T13:35:42;0.70;;;0.60;;
6259;SDS011;3163;51.516;4.000;2023-07-13T13:38:12;1.08;;;0.70;;
6259;SDS011;3163;51.516;4.000;2023-07-13T13:40:40;0.40;;;0.40;;
6259;SDS011;3163;51.516;4.000;2023-07-13T13:45:41;1.05;;;0.60;;
6259;SDS011;3163;51.516;4.000;2023-07-13T13:48:07;0.57;;;0.50;;
6259;SDS011;3163;51.516;4.000;2023-07-13T13:50:42;1.17;;;0.60;;
6259;SDS011;3163;51.516;4.000;2023-07-13T13:53:11;1.15;;;0.80;;
6259;SDS011;3163;51.516;4.000;2023-07-13T13:55:40;0.60;;;0.52;;
6259;SDS011;3163;51.516;4.000;2023-07-13T13:58:09;1.65;;;0.63;;
6259;SDS011;3163;51.516;4.000;2023-07-13T14:00:35;0.60;;;0.50;;
6259;SDS011;3163;51.516;4.000;2023-07-13T14:03:02;0.60;;;0.60;;
6259;SDS011;3163;51.516;4.000;2023-07-13T14:05:29;1.17;;;0.70;;
6259;SDS011;3163;51.516;4.000;2023-07-13T14:07:55;0.50;;;0.50;;
6259;SDS011;3163;51.516;4.000;2023-07-13T14:10:24;1.02;;;0.70;;
6259;SDS011;3163;51.516;4.000;2023-07-13T14:12:52;1.13;;;0.52;;
6259;SDS011;3163;51.516;4.000;2023-07-13T14:17:47;0.73;;;0.57;;
6259;SDS011;3163;51.516;4.000;2023-07-13T14:20:17;0.40;;;0.40;;
6259;SDS011;3163;51.516;4.000;2023-07-13T14:22:45;1.58;;;0.73;;
6259;SDS011;3163;51.516;4.000;2023-07-13T14:25:12;0.55;;;0.55;;
6259;SDS011;3163;51.516;4.000;2023-07-13T14:27:38;3.08;;;0.68;;
6259;SDS011;3163;51.516;4.000;2023-07-13T14:30:25;0.95;;;0.70;;
6259;SDS011;3163;51.516;4.000;2023-07-13T14:32:50;1.45;;;0.70;;
6259;SDS011;3163;51.516;4.000;2023-07-13T14:35:18;0.55;;;0.55;;
6259;SDS011;3163;51.516;4.000;2023-07-13T14:37:46;0.50;;;0.50;;
6259;SDS011;3163;51.516;4.000;2023-07-13T14:40:17;0.85;;;0.70;;
6259;SDS011;3163;51.516;4.000;2023-07-13T14:42:49;1.25;;;0.60;;
6259;SDS011;3163;51.516;4.000;2023-07-13T14:45:15;1.65;;;0.65;;
6259;SDS011;3163;51.516;4.000;2023-07-13T14:47:43;0.50;;;0.50;;
6259;SDS011;3163;51.516;4.000;2023-07-13T14:50:17;0.55;;;0.50;;
6259;SDS011;3163;51.516;4.000;2023-07-13T14:52:48;0.80;;;0.80;;
6259;SDS011;3163;51.516;4.000;2023-07-13T14:55:16;0.98;;;0.75;;
6259;SDS011;3163;51.516;4.000;2023-07-13T14:57:43;0.57;;;0.45;;
6259;SDS011;3163;51.516;4.000;2023-07-13T15:00:12;0.65;;;0.65;;
6259;SDS011;3163;51.516;4.000;2023-07-13T15:02:40;1.30;;;0.80;;
6259;SDS011;3163;51.516;4.000;2023-07-13T15:05:14;0.73;;;0.70;;
6259;SDS011;3163;51.516;4.000;2023-07-13T15:07:43;0.70;;;0.70;;
6259;SDS011;3163;51.516;4.000;2023-07-13T15:10:19;1.85;;;0.80;;
6259;SDS011;3163;51.516;4.000;2023-07-13T15:12:46;1.85;;;0.80;;
6259;SDS011;3163;51.516;4.000;2023-07-13T15:15:13;2.25;;;0.80;;
6259;SDS011;3163;51.516;4.000;2023-07-13T15:17:43;1.25;;;0.95;;
6259;SDS011;3163;51.516;4.000;2023-07-13T15:22:51;1.02;;;0.85;;
6259;SDS011;3163;51.516;4.000;2023-07-13T15:25:18;1.48;;;0.80;;
6259;SDS011;3163;51.516;4.000;2023-07-13T15:27:45;1.20;;;0.80;;
6259;SDS011;3163;51.516;4.000;2023-07-13T15:30:11;1.20;;;0.50;;
6259;SDS011;3163;51.516;4.000;2023-07-13T15:32:37;1.10;;;0.80;;
6259;SDS011;3163;51.516;4.000;2023-07-13T15:35:04;0.70;;;0.70;;
6259;SDS011;3163;51.516;4.000;2023-07-13T15:37:37;2.38;;;0.70;;
6259;SDS011;3163;51.516;4.000;2023-07-13T15:40:03;0.70;;;0.70;;
6259;SDS011;3163;51.516;4.000;2023-07-13T15:42:29;0.70;;;0.70;;
6259;SDS011;3163;51.516;4.000;2023-07-13T15:44:55;0.50;;;0.50;;
6259;SDS011;3163;51.516;4.000;2023-07-13T15:47:21;0.65;;;0.65;;
6259;SDS011;3163;51.516;4.000;2023-07-13T15:49:47;0.63;;;0.63;;
6259;SDS011;3163;51.516;4.000;2023-07-13T15:52:19;0.70;;;0.70;;
6259;SDS011;3163;51.516;4.000;2023-07-13T15:54:48;0.70;;;0.70;;
6259;SDS011;3163;51.516;4.000;2023-07-13T15:57:14;0.60;;;0.60;;
6259;SDS011;3163;51.516;4.000;2023-07-13T15:59:40;1.25;;;0.88;;
6259;SDS011;3163;51.516;4.000;2023-07-13T16:02:17;1.02;;;0.77;;
6259;SDS011;3163;51.516;4.000;2023-07-13T16:04:44;0.63;;;0.63;;
6259;SDS011;3163;51.516;4.000;2023-07-13T16:07:10;1.85;;;0.55;;
6259;SDS011;3163;51.516;4.000;2023-07-13T16:09:39;0.88;;;0.50;;
6259;SDS011;3163;51.516;4.000;2023-07-13T16:12:12;0.60;;;0.50;;